createdAt,value
2022-12-23T00:01:02.705Z,55.15
2022-12-23T00:03:30.742Z,52.38
2022-12-23T00:05:58.213Z,51.42
2022-12-23T00:08:26.058Z,54.42
2022-12-23T00:10:56.236Z,50.70
2022-12-23T00:13:41.668Z,46.97
2022-12-23T00:16:13.814Z,47.25
2022-12-23T00:18:41.748Z,44.35
2022-12-23T00:21:12.017Z,48.58
2022-12-23T00:23:41.430Z,47.20
2022-12-23T00:26:13.754Z,54.17
2022-12-23T00:28:40.699Z,49.15
2022-12-23T00:31:08.257Z,51.58
2022-12-23T00:33:43.074Z,52.80
2022-12-23T00:36:19.289Z,52.67
2022-12-23T00:39:05.031Z,55.50
2022-12-23T00:41:50.823Z,54.15
2022-12-23T00:44:17.774Z,57.20
2022-12-23T00:46:44.831Z,52.65
2022-12-23T00:49:32.312Z,58.67
2022-12-23T00:51:59.874Z,54.15
2022-12-23T00:54:26.966Z,57.17
2022-12-23T00:56:54.834Z,53.70
2022-12-23T00:59:21.792Z,52.50
2022-12-23T01:02:07.697Z,60.53
2022-12-23T01:04:53.976Z,56.95
2022-12-23T01:07:22.272Z,57.45
2022-12-23T01:09:49.220Z,61.45
2022-12-23T01:12:16.196Z,62.22
2022-12-23T01:14:43.166Z,59.92
2022-12-23T01:17:10.171Z,56.20
2022-12-23T01:19:37.278Z,60.75
2022-12-23T01:22:04.205Z,61.55
2022-12-23T01:24:33.721Z,66.63
2022-12-23T01:27:00.987Z,57.47
2022-12-23T01:29:28.995Z,59.80
2022-12-23T01:31:56.073Z,58.90
2022-12-23T01:34:23.144Z,62.13
2022-12-23T01:36:50.199Z,67.97
2022-12-23T01:39:17.197Z,58.95
2022-12-23T01:42:03.126Z,65.38
2022-12-23T01:45:02.378Z,63.08
2022-12-23T01:47:34.951Z,64.93
2022-12-23T01:50:14.770Z,56.30
2022-12-23T01:53:06.948Z,61.47
2022-12-23T01:56:01.192Z,72.78
2022-12-23T01:58:51.334Z,64.53
2022-12-23T02:01:37.746Z,64.90
2022-12-23T02:04:08.108Z,64.50
2022-12-23T02:06:58.170Z,58.05
2022-12-23T02:09:37.065Z,65.43
2022-12-23T02:12:07.068Z,66.68
2022-12-23T02:15:02.344Z,69.43
2022-12-23T02:17:48.114Z,70.18
2022-12-23T02:20:32.748Z,78.82
2022-12-23T02:23:05.463Z,82.90
2022-12-23T02:25:47.111Z,86.25
2022-12-23T02:28:32.887Z,82.15
2022-12-23T02:31:20.121Z,76.05
2022-12-23T02:34:02.014Z,81.68
2022-12-23T02:36:52.214Z,82.00
2022-12-23T02:39:30.877Z,87.45
2022-12-23T02:42:04.065Z,78.25
2022-12-23T02:44:37.923Z,68.70
2022-12-23T02:47:11.162Z,68.22
2022-12-23T02:49:43.044Z,68.45
2022-12-23T02:52:15.523Z,61.65
2022-12-23T02:54:47.002Z,69.78
2022-12-23T02:57:18.061Z,66.80
2022-12-23T02:59:49.113Z,73.80
2022-12-23T03:02:16.431Z,68.72
2022-12-23T03:04:43.532Z,61.72
2022-12-23T03:07:26.652Z,65.93
2022-12-23T03:10:18.710Z,67.13
2022-12-23T03:13:08.645Z,63.75
2022-12-23T03:16:04.649Z,62.72
2022-12-23T03:18:53.419Z,62.55
2022-12-23T03:21:35.788Z,58.67
2022-12-23T03:24:35.413Z,67.00
2022-12-23T03:27:10.338Z,51.65
2022-12-23T03:30:05.904Z,47.95
2022-12-23T03:32:39.111Z,47.90
2022-12-23T03:35:09.639Z,45.00
2022-12-23T03:37:41.114Z,48.00
2022-12-23T03:40:41.668Z,47.17
2022-12-23T03:43:19.853Z,45.80
2022-12-23T03:45:58.677Z,40.45
2022-12-23T03:48:58.346Z,43.17
2022-12-23T03:51:38.449Z,38.88
2022-12-23T03:54:12.007Z,39.60
2022-12-23T03:56:43.072Z,44.38
2022-12-23T03:59:24.247Z,46.05
2022-12-23T04:02:36.971Z,40.35
2022-12-23T04:05:03.925Z,41.67
2022-12-23T04:07:46.012Z,42.17
2022-12-23T04:10:13.758Z,41.63
2022-12-23T04:12:40.985Z,48.65
2022-12-23T04:15:12.876Z,43.13
2022-12-23T04:17:40.203Z,44.50
2022-12-23T04:20:07.879Z,49.65
2022-12-23T04:22:34.826Z,41.92
2022-12-23T04:25:01.767Z,42.63
2022-12-23T04:27:28.680Z,46.65
2022-12-23T04:29:55.582Z,52.15
2022-12-23T04:32:22.582Z,47.50
2022-12-23T04:34:49.472Z,46.15
2022-12-23T04:37:16.397Z,48.53
2022-12-23T04:39:43.289Z,46.00
2022-12-23T04:42:10.262Z,46.75
2022-12-23T04:44:37.181Z,49.22
2022-12-23T04:47:04.216Z,51.63
2022-12-23T04:49:31.879Z,54.78
2022-12-23T04:51:59.121Z,48.45
2022-12-23T04:54:26.127Z,51.80
2022-12-23T04:56:53.208Z,51.70
2022-12-23T04:59:20.139Z,50.70
2022-12-23T05:01:47.387Z,46.65
2022-12-23T05:04:14.595Z,45.08
2022-12-23T05:06:41.555Z,44.38
2022-12-23T05:09:08.726Z,47.63
2022-12-23T05:11:41.885Z,51.97
2022-12-23T05:14:13.058Z,56.35
2022-12-23T05:16:40.127Z,50.13
2022-12-23T05:19:07.342Z,55.95
2022-12-23T05:21:34.352Z,61.28
2022-12-23T05:24:01.283Z,58.20
2022-12-23T05:26:28.212Z,57.17
2022-12-23T05:28:55.772Z,55.05
2022-12-23T05:31:22.965Z,57.13
2022-12-23T05:33:50.192Z,98.65
2022-12-23T05:36:17.199Z,57.55
2022-12-23T05:38:44.108Z,60.83
2022-12-23T05:41:11.136Z,61.80
2022-12-23T05:43:38.081Z,61.03
2022-12-23T05:46:05.235Z,57.88
2022-12-23T05:48:32.277Z,65.38
2022-12-23T05:50:59.257Z,80.13
2022-12-23T05:53:26.685Z,66.20
2022-12-23T05:55:53.657Z,60.70
2022-12-23T05:58:20.657Z,62.92
2022-12-23T06:00:47.525Z,62.00
2022-12-23T06:03:14.656Z,58.40
2022-12-23T06:05:43.612Z,66.40
2022-12-23T06:08:10.613Z,67.57
2022-12-23T06:10:37.587Z,68.32
2022-12-23T06:13:04.566Z,69.40
2022-12-23T06:15:31.570Z,68.30
2022-12-23T06:17:58.481Z,75.45
2022-12-23T06:20:25.426Z,75.45
2022-12-23T06:22:52.406Z,77.25
2022-12-23T06:25:19.405Z,77.60
2022-12-23T06:27:46.571Z,81.63
2022-12-23T06:30:14.191Z,73.35
2022-12-23T06:32:41.261Z,80.90
2022-12-23T06:35:09.002Z,82.88
2022-12-23T06:37:36.023Z,84.50
2022-12-23T06:40:03.003Z,91.68
2022-12-23T06:42:29.949Z,91.13
2022-12-23T06:44:56.900Z,88.68
2022-12-23T06:47:23.821Z,92.55
2022-12-23T06:49:50.942Z,98.40
2022-12-23T06:52:18.002Z,100.18
2022-12-23T06:54:44.944Z,94.22
2022-12-23T06:57:11.889Z,107.90
2022-12-23T06:59:38.799Z,98.93
2022-12-23T07:02:06.639Z,92.97
2022-12-23T07:04:33.665Z,107.97
2022-12-23T07:07:00.613Z,94.63
2022-12-23T07:09:27.900Z,106.10
2022-12-23T07:11:54.822Z,102.40
2022-12-23T07:14:21.808Z,105.43
2022-12-23T07:16:48.844Z,110.45
2022-12-23T07:19:15.817Z,97.38
2022-12-23T07:21:42.676Z,108.05
2022-12-23T07:24:09.788Z,100.97
2022-12-23T07:26:36.739Z,106.05
2022-12-23T07:29:04.685Z,97.35
2022-12-23T07:31:31.747Z,104.80
2022-12-23T07:33:58.748Z,104.35
2022-12-23T07:36:25.660Z,104.90
2022-12-23T07:38:52.687Z,99.88
2022-12-23T07:41:19.848Z,104.03
2022-12-23T07:43:47.228Z,102.30
2022-12-23T07:46:14.292Z,97.43
2022-12-23T07:48:44.025Z,99.88
2022-12-23T07:51:11.032Z,89.00
2022-12-23T07:53:38.043Z,97.22
2022-12-23T07:56:06.717Z,100.00
2022-12-23T07:58:33.654Z,93.43
2022-12-23T08:01:09.562Z,104.28
2022-12-23T08:03:37.543Z,96.43
2022-12-23T08:06:12.356Z,98.07
2022-12-23T08:08:40.428Z,102.38
2022-12-23T08:11:09.532Z,91.28
2022-12-23T08:13:38.890Z,97.90
2022-12-23T08:16:07.056Z,100.93
2022-12-23T08:18:37.207Z,107.00
2022-12-23T08:21:06.706Z,110.15
2022-12-23T08:23:34.543Z,110.85
2022-12-23T08:26:12.964Z,95.07
2022-12-23T08:28:41.692Z,91.90
2022-12-23T08:31:11.926Z,98.45
2022-12-23T08:33:40.668Z,105.75
2022-12-23T08:36:09.698Z,98.25
2022-12-23T08:38:37.334Z,98.22
2022-12-23T08:41:08.523Z,92.88
2022-12-23T08:43:36.117Z,86.57
2022-12-23T08:46:04.272Z,88.85
2022-12-23T08:48:32.089Z,88.78
2022-12-23T08:51:05.242Z,90.82
2022-12-23T08:53:33.672Z,88.07
2022-12-23T08:56:12.804Z,75.70
2022-12-23T08:58:42.768Z,74.70
2022-12-23T09:01:11.458Z,84.68
2022-12-23T09:03:39.669Z,82.45
2022-12-23T09:06:09.840Z,81.35
2022-12-23T09:08:37.387Z,71.22
2022-12-23T09:11:04.955Z,66.18
2022-12-23T09:13:35.817Z,73.03
2022-12-23T09:16:04.116Z,60.72
2022-12-23T09:18:32.118Z,61.92
2022-12-23T09:21:01.100Z,58.45
2022-12-23T09:23:28.092Z,64.72
2022-12-23T09:25:55.479Z,59.33
2022-12-23T09:28:23.726Z,60.95
2022-12-23T09:30:51.295Z,59.05
2022-12-23T09:33:19.822Z,60.25
2022-12-23T09:35:46.855Z,55.17
2022-12-23T09:38:13.807Z,58.25
2022-12-23T09:40:42.437Z,58.97
2022-12-23T09:43:33.540Z,52.03
2022-12-23T09:46:16.205Z,57.13
2022-12-23T09:48:48.890Z,55.50
2022-12-23T09:51:20.501Z,57.42
2022-12-23T09:54:05.710Z,55.03
2022-12-23T09:56:51.923Z,56.13
2022-12-23T09:59:33.908Z,53.25
2022-12-23T10:02:23.632Z,57.55
2022-12-23T10:05:13.496Z,58.08
2022-12-23T10:07:45.644Z,54.85
2022-12-23T10:10:42.326Z,56.45
2022-12-23T10:13:27.851Z,62.60
2022-12-23T10:15:58.005Z,63.58
2022-12-23T10:18:35.498Z,61.38
2022-12-23T10:21:14.581Z,64.45
2022-12-23T10:23:46.455Z,61.55
2022-12-23T10:26:41.592Z,64.45
2022-12-23T10:29:19.798Z,64.88
2022-12-23T10:32:15.522Z,66.57
2022-12-23T10:35:01.356Z,75.85
2022-12-23T10:37:40.566Z,62.83
2022-12-23T10:40:29.520Z,64.53
2022-12-23T10:43:08.425Z,68.13
2022-12-23T10:46:01.818Z,64.40
2022-12-23T10:48:56.203Z,69.45
2022-12-23T10:54:03.915Z,64.65
2022-12-23T10:56:31.697Z,64.13
2022-12-23T10:59:01.362Z,64.25
2022-12-23T11:01:32.255Z,62.38
2022-12-23T11:04:14.923Z,63.33
2022-12-23T11:06:46.768Z,65.00
2022-12-23T11:09:20.926Z,64.35
2022-12-23T11:12:06.445Z,71.18
2022-12-23T11:14:42.908Z,63.95
2022-12-23T11:17:22.270Z,64.55
2022-12-23T11:20:05.832Z,79.53
2022-12-23T11:22:32.840Z,65.15
2022-12-23T11:25:27.693Z,61.47
2022-12-23T11:28:02.443Z,66.30
2022-12-23T11:30:31.830Z,67.00
2022-12-23T11:32:59.157Z,67.55
2022-12-23T11:35:36.783Z,58.30
2022-12-23T11:38:04.341Z,63.03
2022-12-23T11:40:38.042Z,64.47
2022-12-23T11:43:15.925Z,67.45
2022-12-23T11:45:42.900Z,75.05
2022-12-23T11:48:34.354Z,66.95
2022-12-23T11:51:03.428Z,69.85
2022-12-23T11:53:31.425Z,68.75
2022-12-23T11:56:15.558Z,61.38
2022-12-23T11:58:54.056Z,70.55
2022-12-23T12:01:24.107Z,62.35
2022-12-23T12:03:59.362Z,71.22
2022-12-23T12:06:27.755Z,65.93
2022-12-23T12:08:58.300Z,70.00
2022-12-23T12:11:33.459Z,60.78
2022-12-23T12:14:04.418Z,58.67
2022-12-23T12:16:31.473Z,62.63
2022-12-23T12:19:19.380Z,61.28
2022-12-23T12:21:49.351Z,57.30
2022-12-23T12:24:25.241Z,53.20
2022-12-23T12:26:57.540Z,52.50
2022-12-23T12:29:45.866Z,48.38
2022-12-23T12:32:47.097Z,45.10
2022-12-23T12:35:43.437Z,48.15
2022-12-23T12:38:27.155Z,47.20
2022-12-23T12:41:21.756Z,46.92
2022-12-23T12:44:03.541Z,49.75
2022-12-23T12:46:42.521Z,48.70
2022-12-23T12:49:41.087Z,42.85
2022-12-23T12:52:22.122Z,48.78
2022-12-23T12:54:54.845Z,48.40
2022-12-23T12:57:23.345Z,50.67
2022-12-23T13:00:05.594Z,44.50
2022-12-23T13:03:01.343Z,48.00
2022-12-23T13:05:55.082Z,46.13
2022-12-23T13:08:33.939Z,45.88
2022-12-23T13:11:14.780Z,48.95
2022-12-23T13:14:18.622Z,52.25
2022-12-23T13:17:08.378Z,44.97
2022-12-23T13:19:53.218Z,49.97
2022-12-23T13:22:33.829Z,49.13
2022-12-23T13:25:29.972Z,53.88
2022-12-23T13:28:18.124Z,48.40
2022-12-23T13:30:57.700Z,51.10
2022-12-23T13:33:45.169Z,55.55
2022-12-23T13:36:14.903Z,50.38
2022-12-23T13:39:24.191Z,58.95
2022-12-23T13:41:58.596Z,51.67
2022-12-23T13:44:30.375Z,53.30
2022-12-23T13:47:18.625Z,56.78
2022-12-23T13:50:04.363Z,55.35
2022-12-23T13:52:55.966Z,51.83
2022-12-23T13:55:47.771Z,51.95
2022-12-23T13:58:18.279Z,51.65
2022-12-23T14:00:45.854Z,53.75
2022-12-23T14:03:24.714Z,49.97
2022-12-23T14:05:53.204Z,54.47
2022-12-23T14:08:20.245Z,54.25
2022-12-23T14:11:17.823Z,61.17
2022-12-23T14:13:50.842Z,51.40
2022-12-23T14:16:32.766Z,52.40
2022-12-23T14:19:08.583Z,63.95
2022-12-23T14:21:58.177Z,55.63
2022-12-23T14:24:53.326Z,60.08
2022-12-23T14:27:31.949Z,59.97
2022-12-23T14:30:06.531Z,56.35
2022-12-23T14:32:52.729Z,56.40
2022-12-23T14:35:40.099Z,58.55
2022-12-23T14:38:15.450Z,63.45
2022-12-23T14:40:42.430Z,58.42
2022-12-23T14:43:26.590Z,73.65
2022-12-23T14:45:55.851Z,66.63
2022-12-23T14:48:44.437Z,58.40
2022-12-23T14:51:14.426Z,62.88
2022-12-23T14:53:59.183Z,56.90
2022-12-23T14:56:26.118Z,64.03
2022-12-23T14:59:12.629Z,62.17
2022-12-23T15:01:50.291Z,67.47
2022-12-23T15:04:21.992Z,78.10
2022-12-23T15:06:53.353Z,68.43
2022-12-23T15:09:26.863Z,78.75
2022-12-23T15:11:56.299Z,73.80
2022-12-23T15:14:43.033Z,78.75
2022-12-23T15:17:25.471Z,79.63
2022-12-23T15:19:53.187Z,79.20
2022-12-23T15:22:26.835Z,79.85
2022-12-23T15:24:57.206Z,79.75
2022-12-23T15:27:27.923Z,82.50
2022-12-23T15:29:56.431Z,83.47
2022-12-23T15:32:25.070Z,79.47
2022-12-23T15:34:53.123Z,79.80
2022-12-23T15:37:27.610Z,91.05
2022-12-23T15:40:04.516Z,91.57
2022-12-23T15:42:35.524Z,89.60
2022-12-23T15:45:23.790Z,93.10
2022-12-23T15:47:51.099Z,82.28
2022-12-23T15:50:19.114Z,86.75
2022-12-23T15:52:49.199Z,87.13
2022-12-23T15:55:31.191Z,90.13
2022-12-23T15:57:59.982Z,89.43
2022-12-23T16:00:29.206Z,85.13
2022-12-23T16:03:01.048Z,86.15
2022-12-23T16:05:39.022Z,89.78
2022-12-23T16:08:19.336Z,82.50
2022-12-23T16:13:33.141Z,83.30
2022-12-23T16:16:37.661Z,91.95
2022-12-23T16:19:05.057Z,87.63
2022-12-23T16:21:35.413Z,86.95
2022-12-23T16:24:08.441Z,88.22
2022-12-23T16:26:45.055Z,89.33
2022-12-23T16:29:12.748Z,86.80
2022-12-23T16:31:44.312Z,81.78
2022-12-23T16:34:15.329Z,91.85
2022-12-23T16:36:42.312Z,87.93
2022-12-23T16:39:09.222Z,79.50
2022-12-23T16:41:36.457Z,75.72
2022-12-23T16:44:04.401Z,78.75
2022-12-23T16:46:36.585Z,79.50
2022-12-23T16:49:06.617Z,81.38
2022-12-23T16:51:34.270Z,86.68
2022-12-23T16:54:01.738Z,87.93
2022-12-23T16:56:34.863Z,86.60
2022-12-23T16:59:02.250Z,88.75
2022-12-23T17:01:35.036Z,90.25
2022-12-23T17:04:02.366Z,91.83
2022-12-23T17:06:29.283Z,98.60
2022-12-23T17:08:57.070Z,93.43
2022-12-23T17:11:29.017Z,101.75
2022-12-23T17:14:03.292Z,98.60
2022-12-23T17:16:31.822Z,99.18
2022-12-23T17:18:58.853Z,97.45
2022-12-23T17:21:36.753Z,84.80
2022-12-23T17:24:25.519Z,84.30
2022-12-23T17:26:53.274Z,92.90
2022-12-23T17:29:21.113Z,90.30
2022-12-23T17:31:50.108Z,84.78
2022-12-23T17:34:19.621Z,83.07
2022-12-23T17:36:50.233Z,80.65
2022-12-23T17:39:18.732Z,89.88
2022-12-23T17:41:45.937Z,82.30
2022-12-23T17:44:17.603Z,85.22
2022-12-23T17:46:46.005Z,92.43
2022-12-23T17:49:12.985Z,94.25
2022-12-23T17:51:40.500Z,81.88
2022-12-23T17:54:16.576Z,87.18
2022-12-23T17:56:43.496Z,82.70
2022-12-23T17:59:10.441Z,86.88
2022-12-23T18:01:37.959Z,80.63
2022-12-23T18:04:18.395Z,94.35
2022-12-23T18:06:45.325Z,90.32
2022-12-23T18:09:12.257Z,92.45
2022-12-23T18:11:44.834Z,74.88
2022-12-23T18:14:29.509Z,84.32
2022-12-23T18:16:56.617Z,83.95
2022-12-23T18:19:23.720Z,79.20
2022-12-23T18:21:51.700Z,83.38
2022-12-23T18:24:18.904Z,88.72
2022-12-23T18:26:46.306Z,92.25
2022-12-23T18:29:13.502Z,91.55
2022-12-23T18:31:51.229Z,83.78
2022-12-23T18:34:19.466Z,85.47
2022-12-23T18:36:48.215Z,87.88
2022-12-23T18:39:15.446Z,85.45
2022-12-23T18:41:42.370Z,80.43
2022-12-23T18:44:18.067Z,76.45
2022-12-23T18:46:46.079Z,72.80
2022-12-23T18:49:13.071Z,77.72
2022-12-23T18:51:40.049Z,72.97
2022-12-23T18:54:07.113Z,70.32
2022-12-23T18:56:34.069Z,68.20
2022-12-23T18:59:01.049Z,73.97
2022-12-23T19:01:28.119Z,74.18
2022-12-23T19:03:55.031Z,73.15
2022-12-23T19:06:22.053Z,74.10
2022-12-23T19:08:49.000Z,74.65
2022-12-23T19:11:19.024Z,71.43
2022-12-23T19:13:46.607Z,71.75
2022-12-23T19:16:15.930Z,73.00
2022-12-23T19:18:43.138Z,76.15
2022-12-23T19:21:10.306Z,76.97
2022-12-23T19:23:39.376Z,92.75
2022-12-23T19:26:06.375Z,112.70
2022-12-23T19:28:33.686Z,75.50
2022-12-23T19:31:00.766Z,82.75
2022-12-23T19:33:27.887Z,79.53
2022-12-23T19:35:55.192Z,78.05
2022-12-23T19:38:22.387Z,63.78
2022-12-23T19:40:57.589Z,77.05
2022-12-23T19:43:24.675Z,79.32
2022-12-23T19:45:59.272Z,84.70
2022-12-23T19:48:27.069Z,91.13
2022-12-23T19:51:13.982Z,72.75
2022-12-23T19:53:42.333Z,70.70
2022-12-23T19:56:13.477Z,71.93
2022-12-23T19:58:42.322Z,72.05
2022-12-23T20:01:18.217Z,71.50
2022-12-23T20:03:47.083Z,70.13
2022-12-23T20:06:19.747Z,71.43
2022-12-23T20:08:48.660Z,68.05
2022-12-23T20:11:20.700Z,62.78
2022-12-23T20:13:51.523Z,71.22
2022-12-23T20:16:18.847Z,63.47
2022-12-23T20:18:46.041Z,61.25
2022-12-23T20:21:13.340Z,66.30
2022-12-23T20:23:40.639Z,66.72
2022-12-23T20:26:07.908Z,59.85
2022-12-23T20:28:35.194Z,60.60
2022-12-23T20:31:09.480Z,69.82
2022-12-23T20:33:38.185Z,73.47
2022-12-23T20:36:10.182Z,65.13
2022-12-23T20:38:41.445Z,64.65
2022-12-23T20:41:10.077Z,63.50
2022-12-23T20:43:37.492Z,88.60
2022-12-23T20:46:06.284Z,95.93
2022-12-23T20:48:34.733Z,69.05
2022-12-23T20:51:06.447Z,73.72
2022-12-23T20:53:33.442Z,74.88
2022-12-23T20:56:01.529Z,72.10
2022-12-23T20:58:47.015Z,67.20
2022-12-23T21:01:14.175Z,66.28
2022-12-23T21:03:41.736Z,62.70
2022-12-23T21:06:09.285Z,66.28
2022-12-23T21:08:38.006Z,64.18
2022-12-23T21:11:06.201Z,69.68
2022-12-23T21:13:33.671Z,65.35
2022-12-23T21:16:05.847Z,66.63
2022-12-23T21:18:33.453Z,68.05
2022-12-23T21:21:14.382Z,62.97
2022-12-23T21:23:42.131Z,63.38
2022-12-23T21:26:40.214Z,59.25
2022-12-23T21:29:09.174Z,68.18
2022-12-23T21:31:38.343Z,68.22
2022-12-23T21:34:06.573Z,69.13
2022-12-23T21:36:36.653Z,65.75
2022-12-23T21:39:04.974Z,67.20
2022-12-23T21:41:38.754Z,66.07
2022-12-23T21:46:33.677Z,63.58
2022-12-23T21:49:00.850Z,61.75
2022-12-23T21:51:38.561Z,67.53
2022-12-23T21:54:07.315Z,69.20
2022-12-23T21:56:34.535Z,67.65
2022-12-23T21:59:05.463Z,65.95
2022-12-23T22:01:33.274Z,75.97
2022-12-23T22:04:00.247Z,71.45
2022-12-23T22:06:33.223Z,72.40
2022-12-23T22:09:00.234Z,66.03
2022-12-23T22:11:30.101Z,73.57
2022-12-23T22:13:58.629Z,68.00
2022-12-23T22:16:27.713Z,80.95
2022-12-23T22:18:55.752Z,82.45
2022-12-23T22:21:25.119Z,77.65
2022-12-23T22:23:53.498Z,84.28
2022-12-23T22:26:25.596Z,80.40
2022-12-23T22:28:58.633Z,70.95
2022-12-23T22:31:39.856Z,74.22
2022-12-23T22:34:08.035Z,72.43
2022-12-23T22:36:35.254Z,64.03
2022-12-23T22:39:02.702Z,67.28
2022-12-23T22:41:30.387Z,69.65
2022-12-23T22:43:58.322Z,75.18
2022-12-23T22:46:25.903Z,70.45
2022-12-23T22:48:53.506Z,75.72
2022-12-23T22:51:28.300Z,69.05
2022-12-23T22:53:56.579Z,68.20
2022-12-23T22:56:24.993Z,70.32
2022-12-23T22:58:53.163Z,76.15
2022-12-23T23:01:27.029Z,66.90
2022-12-23T23:03:58.775Z,71.93
2022-12-23T23:06:37.669Z,69.20
2022-12-23T23:09:07.362Z,69.95
2022-12-23T23:11:34.558Z,60.60
2022-12-23T23:14:01.744Z,58.90
2022-12-23T23:16:28.759Z,62.40
2022-12-23T23:18:55.777Z,66.05
2022-12-23T23:21:22.770Z,56.88
2022-12-23T23:23:49.967Z,61.50
2022-12-23T23:26:18.214Z,70.28
2022-12-23T23:28:45.325Z,74.03
2022-12-23T23:33:59.438Z,67.20
2022-12-23T23:36:27.276Z,78.53
2022-12-23T23:38:54.543Z,73.38
2022-12-23T23:41:23.734Z,79.15
2022-12-23T23:43:51.194Z,70.32
2022-12-23T23:46:18.503Z,74.20
2022-12-23T23:48:45.828Z,68.45
2022-12-23T23:51:13.011Z,76.65
2022-12-23T23:53:40.636Z,77.95
2022-12-23T23:56:08.367Z,77.20
2022-12-23T23:58:36.782Z,82.63
